Flight Track Log - Related Links

Times and Time Zones

All times are in EDT time to prevent confusion due to time zone crossing. See the FLG4262 flight status page for this flight to view local times or setup timezone preferences in your user account.

Time Position Orientation Groundspeed Altitude Reporting Facility
EDT Latitude Longitude Course Direction KTS MPH feet Rate Location/Type
Thu 04:04:56 PM 42.2039 -83.3697 83° East 173 199 1,300  Level Cleveland Center
Thu 04:05:51 PM 42.1578 -83.3686 179° South 199 229 3,700 2,154 Climbing Cleveland Center
Thu 04:06:14 PM 42.1464 -83.3667 173° South 194 223 4,100 2,262 Climbing Cleveland Center
Thu 04:06:52 PM 42.0942 -83.3514 168° South 263 303 6,000 2,710 Climbing Cleveland Center
Thu 04:07:16 PM 42.0764 -83.3153 124° Southeast 274 315 6,900 2,516 Climbing Cleveland Center
Thu 04:07:54 PM 42.0597 -83.2564 111° Southeast 298 343 8,600 2,516 Climbing Cleveland Center
Thu 04:08:18 PM 42.0478 -83.2122 110° East 292 336 9,500 1,103 Climbing Cleveland Center
Thu 04:09:00 PM 42.2338 -82.5969 94° East  Level Estimated
Thu 04:09:21 PM 42.0869 -83.1056 64° Northeast 342 394 10,200  Level Cleveland Center
Thu 04:10:00 PM 42.2465 -82.4464 83° East  Level FlightAware Approximate
Thu 04:10:23 PM 42.1400 -82.9858 59° Northeast 372 428 12,300  Level Cleveland Center
Thu 04:11:25 PM 42.1919 -82.8631 60° Northeast 380 437 14,300 2,129 Climbing Cleveland Center
Thu 04:12:27 PM 42.2556 -82.7156 60° Northeast 380 437 16,700 1,984 Climbing Cleveland Center
Thu 04:13:29 PM 42.3083 -82.5928 60° Northeast 380 437 18,400 1,306 Climbing Cleveland Center
Thu 04:14:31 PM 42.3594 -82.4675 61° Northeast 381 438 19,400 968 Climbing Cleveland Center
Thu 04:15:33 PM 42.3625 -82.3142 88° East 408 470 20,400 1,065 Climbing Cleveland Center
Thu 04:16:35 PM 42.3547 -82.1356 93° East 420 483 21,600 1,065 Climbing Cleveland Center
Thu 04:17:37 PM 42.3469 -81.9772 94° East 417 480 22,600 968 Climbing Cleveland Center
Thu 04:18:39 PM 42.3400 -81.8161 93° East 422 486 23,600 768 Climbing Cleveland Center
Thu 04:19:42 PM 42.3325 -81.6542 94° East 425 489 24,200 528 Climbing Cleveland Center
Thu 04:20:44 PM 42.3247 -81.4886 94° East 434 499 24,700 387 Climbing Cleveland Center
Thu 04:21:46 PM 42.3169 -81.3192 93° East 442 509 25,000 145 Climbing Cleveland Center
Thu 04:22:48 PM 42.3081 -81.1528 94° East 451 519 25,000  Level Cleveland Center
Thu 04:24:00 PM 42.2994 -80.9904 95° East  Level FlightAware Approximate
Thu 04:24:52 PM 42.2886 -80.7644 95° East 467 537 25,000  Level Cleveland Center
Thu 04:25:54 PM 42.2792 -80.5892 94° East 465 535 25,000  Level Cleveland Center
Thu 04:26:56 PM 42.2697 -80.4097 94° East 471 542 25,000  Level Cleveland Center
Thu 04:27:58 PM 42.2597 -80.2314 94° East 474 545 25,000  Level Cleveland Center
Thu 04:29:00 PM 42.2481 -80.0503 95° East 478 550 25,000  Level Cleveland Center
Thu 04:30:02 PM 42.2381 -79.8747 94° East 473 544 25,000  Level Cleveland Center
Thu 04:31:05 PM 42.2242 -79.6636 95° East 473 544 25,000  Level Cleveland Center
Thu 04:32:07 PM 42.2131 -79.4867 95° East 476 548 25,000  Level Cleveland Center
Thu 04:33:09 PM 42.2008 -79.3111 95° East 474 545 25,000  Level Cleveland Center
Thu 04:34:11 PM 42.1892 -79.1336 95° East 476 548 25,000  Level Cleveland Center
Thu 04:35:13 PM 42.1917 -78.9572 89° East 472 543 25,000  Level Cleveland Center
Thu 04:36:15 PM 42.1950 -78.7736 89° East 472 543 25,000  Level Cleveland Center
Thu 04:37:17 PM 42.1978 -78.5978 89° East 472 543 25,000  Level Cleveland Center
Thu 04:38:19 PM 42.2008 -78.3856 89° East 474 545 25,000 -194 Level Cleveland Center
Thu 04:39:21 PM 42.2036 -78.2094 89° East 474 545 24,600 -774 Descending Cleveland Center
Thu 04:40:23 PM 42.2061 -78.0392 89° East 471 542 23,400 -1,440 Descending Cleveland Center
Thu 04:41:26 PM 42.2075 -77.8614 89° East 469 540 21,600 -1,584 Descending Cleveland Center
Thu 04:42:28 PM 42.2086 -77.6939 89° East 457 526 20,100 -1,258 Descending Cleveland Center
Thu 04:43:30 PM 42.2106 -77.4961 89° East 448 516 19,000 -532 Descending Cleveland Center
Thu 04:44:32 PM 42.2108 -77.3364 90° East 438 504 19,000  Level Cleveland Center
Thu 04:45:34 PM 42.2114 -77.1761 90° East 433 498 19,000 -54 Level Cleveland Center
Thu 04:46:24 PM 42.2119 -77.0394 90° East 440 506 18,900 -873 Descending New York Center
Thu 04:47:24 PM 42.2111 -76.8967 90° East 414 476 17,400 -1,550 Descending New York Center
Thu 04:48:24 PM 42.2114 -76.7678 90° East 373 429 15,800 -1,700 Descending New York Center
Thu 04:49:24 PM 42.2092 -76.6417 91° East 334 384 14,000 -1,850 Descending New York Center
Thu 04:50:24 PM 42.2083 -76.5325 91° East 309 356 12,100 -1,850 Descending New York Center
Thu 04:51:24 PM 42.2092 -76.4261 89° East 295 339 10,300 -1,800 Descending New York Center
Thu 04:52:24 PM 42.2161 -76.3231 85° East 284 327 8,500 -1,850 Descending New York Center
Thu 04:53:24 PM 42.2292 -76.2206 80° East 277 319 6,600 -2,000 Descending New York Center
Thu 04:54:24 PM 42.2483 -76.1242 75° East 272 313 4,500 -1,700 Descending New York Center
Thu 04:55:24 PM 42.2661 -76.0472 73° East 245 282 3,200 -1,100 Descending New York Center
Thu 04:56:24 PM 42.2389 -76.0056 131° Southeast 151 174 2,300 -450 Descending New York Center
Thu 04:57:24 PM 42.2286 -75.9544 105° East 151 174 2,300  Level New York Center

Login

Don't have an account? Register now (free) for customized features, flight alerts, and more!